BDR003 LGSK-LYTV
Flight info
| Callsign | BDR003 |
|---|---|
| Flight time | 1h 3m |
| Altitude | 32000 |
| Route | TSL UN130 TALAS DCT MAVAR Y400 POD |
| Aircraft | B738/M-SDE2E3FGHIRWXY/LB1 |
Departure
| Time | 2026-04-20 15:26 |
|---|---|
| Airport | Skiathos Island National Airport (LGSK) |
Arrival
| Time | 2026-04-20 16:29 |
|---|---|
| Airport | Tivat Airport (LYTV) |
| Time | Latitude | Longitude | Altitude | Speed | Heading |
|---|---|---|---|---|---|
| 2026-04-20 15:09 | 39.17702 | 23.50197 | 35 ft | 0 kts | 295° |
| 2026-04-20 15:21 | 39.17700 | 23.50192 | 35 ft | 1 kts | 249° |
| 2026-04-20 15:21 | 39.17675 | 23.50188 | 34 ft | 7 kts | 173° |
| 2026-04-20 15:21 | 39.17618 | 23.50199 | 34 ft | 8 kts | 171° |
| 2026-04-20 15:21 | 39.17568 | 23.50232 | 34 ft | 8 kts | 134° |
| 2026-04-20 15:22 | 39.17523 | 23.50271 | 33 ft | 8 kts | 180° |
| 2026-04-20 15:22 | 39.17466 | 23.50249 | 32 ft | 9 kts | 199° |
| 2026-04-20 15:22 | 39.17404 | 23.50221 | 29 ft | 10 kts | 199° |
| 2026-04-20 15:22 | 39.17327 | 23.50188 | 29 ft | 13 kts | 198° |
| 2026-04-20 15:23 | 39.17239 | 23.50149 | 21 ft | 12 kts | 199° |
| 2026-04-20 15:23 | 39.17162 | 23.50115 | 20 ft | 12 kts | 199° |
| 2026-04-20 15:23 | 39.17087 | 23.50082 | 18 ft | 12 kts | 197° |
| 2026-04-20 15:23 | 39.17018 | 23.50086 | 15 ft | 7 kts | 210° |
| 2026-04-20 15:24 | 39.17016 | 23.50063 | 16 ft | 3 kts | 295° |
| 2026-04-20 15:24 | 39.17033 | 23.50059 | 16 ft | 3 kts | 10° |
| 2026-04-20 15:24 | 39.17041 | 23.50062 | 16 ft | 0 kts | 17° |
| 2026-04-20 15:25 | 39.17204 | 23.50133 | 22 ft | 67 kts | 19° |
| 2026-04-20 15:25 | 39.17907 | 23.50444 | 41 ft | 144 kts | 19° |
| 2026-04-20 15:26 | 39.18977 | 23.50914 | 540 ft | 165 kts | 20° |
| 2026-04-20 15:26 | 39.20069 | 23.51377 | 1454 ft | 168 kts | 18° |
| 2026-04-20 15:26 | 39.21218 | 23.51870 | 2110 ft | 188 kts | 19° |
| 2026-04-20 15:26 | 39.22567 | 23.52499 | 2409 ft | 217 kts | 18° |
| 2026-04-20 15:27 | 39.24014 | 23.53153 | 3006 ft | 223 kts | 18° |
| 2026-04-20 15:27 | 39.25492 | 23.53815 | 3701 ft | 226 kts | 17° |
| 2026-04-20 15:27 | 39.26977 | 23.54478 | 4477 ft | 228 kts | 16° |
| 2026-04-20 15:27 | 39.28505 | 23.55003 | 5268 ft | 226 kts | 356° |
| 2026-04-20 15:28 | 39.30070 | 23.54609 | 5772 ft | 241 kts | 338° |
| 2026-04-20 15:28 | 39.31728 | 23.53846 | 6217 ft | 260 kts | 336° |
| 2026-04-20 15:28 | 39.33445 | 23.53019 | 6999 ft | 266 kts | 336° |
| 2026-04-20 15:28 | 39.35185 | 23.52177 | 7846 ft | 269 kts | 337° |
| 2026-04-20 15:29 | 39.36349 | 23.51617 | 8407 ft | 271 kts | 337° |
| 2026-04-20 15:29 | 39.38124 | 23.50765 | 9255 ft | 274 kts | 337° |
| 2026-04-20 15:29 | 39.40540 | 23.49610 | 10309 ft | 282 kts | 338° |
| 2026-04-20 15:29 | 39.41791 | 23.49013 | 10490 ft | 297 kts | 338° |
| 2026-04-20 15:30 | 39.43813 | 23.48047 | 10681 ft | 322 kts | 338° |
| 2026-04-20 15:30 | 39.45991 | 23.47010 | 10901 ft | 344 kts | 338° |
| 2026-04-20 15:30 | 39.48264 | 23.45931 | 11448 ft | 353 kts | 338° |
| 2026-04-20 15:30 | 39.50579 | 23.44835 | 12199 ft | 356 kts | 338° |
| 2026-04-20 15:31 | 39.52911 | 23.43731 | 12990 ft | 358 kts | 338° |
| 2026-04-20 15:31 | 39.55265 | 23.42616 | 13728 ft | 362 kts | 338° |
| 2026-04-20 15:31 | 39.57636 | 23.41491 | 14378 ft | 365 kts | 338° |
| 2026-04-20 15:31 | 39.60034 | 23.40353 | 15052 ft | 368 kts | 338° |
| 2026-04-20 15:32 | 39.62445 | 23.39208 | 15720 ft | 371 kts | 338° |
| 2026-04-20 15:32 | 39.64875 | 23.38052 | 16366 ft | 374 kts | 338° |
| 2026-04-20 15:32 | 39.67330 | 23.36883 | 17003 ft | 377 kts | 338° |
| 2026-04-20 15:32 | 39.69802 | 23.35706 | 17647 ft | 380 kts | 338° |
| 2026-04-20 15:33 | 39.72299 | 23.34515 | 18260 ft | 384 kts | 338° |
| 2026-04-20 15:33 | 39.74813 | 23.33315 | 18792 ft | 387 kts | 338° |
| 2026-04-20 15:33 | 39.77345 | 23.32107 | 19366 ft | 389 kts | 338° |
| 2026-04-20 15:33 | 39.79888 | 23.30891 | 19925 ft | 391 kts | 338° |
| 2026-04-20 15:34 | 39.82443 | 23.29669 | 20454 ft | 393 kts | 338° |
| 2026-04-20 15:34 | 39.85020 | 23.28436 | 20989 ft | 396 kts | 338° |
| 2026-04-20 15:34 | 39.87613 | 23.27194 | 21504 ft | 398 kts | 338° |
| 2026-04-20 15:34 | 39.90192 | 23.25957 | 22004 ft | 401 kts | 338° |
| 2026-04-20 15:35 | 39.92814 | 23.24700 | 22521 ft | 403 kts | 338° |
| 2026-04-20 15:35 | 39.95452 | 23.23433 | 23008 ft | 405 kts | 338° |
| 2026-04-20 15:35 | 39.98144 | 23.22139 | 23477 ft | 408 kts | 338° |
| 2026-04-20 15:35 | 40.00815 | 23.20854 | 23880 ft | 410 kts | 338° |
| 2026-04-20 15:36 | 40.03500 | 23.19562 | 24293 ft | 412 kts | 338° |
| 2026-04-20 15:36 | 40.06186 | 23.18268 | 24699 ft | 413 kts | 338° |
| 2026-04-20 15:36 | 40.08855 | 23.16981 | 25092 ft | 415 kts | 338° |
| 2026-04-20 15:36 | 40.11570 | 23.15670 | 25460 ft | 417 kts | 338° |
| 2026-04-20 15:37 | 40.14295 | 23.14354 | 25834 ft | 418 kts | 338° |
| 2026-04-20 15:37 | 40.17029 | 23.13033 | 26186 ft | 420 kts | 338° |
| 2026-04-20 15:37 | 40.19777 | 23.11702 | 26547 ft | 422 kts | 338° |
| 2026-04-20 15:37 | 40.22530 | 23.10369 | 26893 ft | 423 kts | 338° |
| 2026-04-20 15:38 | 40.25297 | 23.09028 | 27230 ft | 425 kts | 338° |
| 2026-04-20 15:38 | 40.28075 | 23.07680 | 27564 ft | 427 kts | 338° |
| 2026-04-20 15:38 | 40.30867 | 23.06325 | 27888 ft | 428 kts | 338° |
| 2026-04-20 15:38 | 40.33662 | 23.04966 | 28202 ft | 430 kts | 338° |
| 2026-04-20 15:39 | 40.36473 | 23.03599 | 28509 ft | 432 kts | 338° |
| 2026-04-20 15:39 | 40.39292 | 23.02226 | 28809 ft | 433 kts | 338° |
| 2026-04-20 15:39 | 40.42125 | 23.00845 | 29109 ft | 435 kts | 338° |
| 2026-04-20 15:39 | 40.44855 | 22.99173 | 29364 ft | 434 kts | 326° |
| 2026-04-20 15:40 | 40.47182 | 22.96673 | 29844 ft | 429 kts | 313° |
| 2026-04-20 15:40 | 40.49051 | 22.93672 | 30580 ft | 420 kts | 308° |
| 2026-04-20 15:40 | 40.50791 | 22.90651 | 31268 ft | 411 kts | 308° |
| 2026-04-20 15:40 | 40.52485 | 22.87667 | 31823 ft | 406 kts | 308° |
| 2026-04-20 15:41 | 40.54186 | 22.84679 | 31890 ft | 410 kts | 308° |
| 2026-04-20 15:41 | 40.57659 | 22.78649 | 31910 ft | 415 kts | 308° |
| 2026-04-20 15:42 | 40.61145 | 22.72643 | 31915 ft | 412 kts | 308° |
| 2026-04-20 15:42 | 40.64617 | 22.66666 | 31910 ft | 410 kts | 308° |
| 2026-04-20 15:43 | 40.68069 | 22.60712 | 31919 ft | 409 kts | 308° |
| 2026-04-20 15:43 | 40.71516 | 22.54754 | 31920 ft | 408 kts | 308° |
| 2026-04-20 15:44 | 40.74927 | 22.48847 | 31920 ft | 408 kts | 308° |
| 2026-04-20 15:44 | 40.78369 | 22.42879 | 31927 ft | 409 kts | 308° |
| 2026-04-20 15:45 | 40.81819 | 22.36905 | 31924 ft | 410 kts | 308° |
| 2026-04-20 15:45 | 40.85272 | 22.30916 | 31926 ft | 411 kts | 308° |
| 2026-04-20 15:46 | 40.88733 | 22.24898 | 31930 ft | 412 kts | 308° |
| 2026-04-20 15:46 | 40.92196 | 22.18865 | 31933 ft | 412 kts | 308° |
| 2026-04-20 15:47 | 40.95666 | 22.12806 | 31942 ft | 414 kts | 308° |
| 2026-04-20 15:47 | 40.99142 | 22.06726 | 31945 ft | 414 kts | 308° |
| 2026-04-20 15:48 | 41.02617 | 22.00635 | 31947 ft | 415 kts | 308° |
| 2026-04-20 15:48 | 41.06085 | 21.94545 | 31945 ft | 415 kts | 308° |
| 2026-04-20 15:49 | 41.09294 | 21.88207 | 31983 ft | 414 kts | 302° |
| 2026-04-20 15:49 | 41.12164 | 21.81578 | 31946 ft | 414 kts | 301° |
| 2026-04-20 15:50 | 41.15022 | 21.74953 | 31956 ft | 414 kts | 302° |
| 2026-04-20 15:50 | 41.17889 | 21.68331 | 31953 ft | 414 kts | 302° |
| 2026-04-20 15:51 | 41.20761 | 21.61704 | 31950 ft | 413 kts | 302° |
| 2026-04-20 15:51 | 41.23625 | 21.55084 | 31949 ft | 413 kts | 302° |
| 2026-04-20 15:52 | 41.26480 | 21.48473 | 31957 ft | 413 kts | 301° |
| 2026-04-20 15:52 | 41.29337 | 21.41840 | 31957 ft | 413 kts | 301° |
| 2026-04-20 15:53 | 41.33609 | 21.31896 | 31959 ft | 413 kts | 301° |
| 2026-04-20 15:53 | 41.36452 | 21.25259 | 31827 ft | 412 kts | 301° |
| 2026-04-20 15:54 | 41.37863 | 21.21959 | 31554 ft | 408 kts | 301° |
| 2026-04-20 15:54 | 41.39263 | 21.18683 | 31309 ft | 406 kts | 301° |
| 2026-04-20 15:54 | 41.40662 | 21.15406 | 31051 ft | 408 kts | 301° |
| 2026-04-20 15:54 | 41.42067 | 21.12108 | 30815 ft | 410 kts | 301° |
| 2026-04-20 15:55 | 41.43477 | 21.08800 | 30577 ft | 411 kts | 301° |
| 2026-04-20 15:55 | 41.44885 | 21.05488 | 30335 ft | 412 kts | 301° |
| 2026-04-20 15:55 | 41.46297 | 21.02166 | 30089 ft | 412 kts | 301° |
| 2026-04-20 15:55 | 41.47709 | 20.98838 | 29809 ft | 412 kts | 301° |
| 2026-04-20 15:56 | 41.49121 | 20.95507 | 29529 ft | 412 kts | 301° |
| 2026-04-20 15:56 | 41.50526 | 20.92190 | 29258 ft | 411 kts | 301° |
| 2026-04-20 15:56 | 41.51931 | 20.88868 | 28976 ft | 411 kts | 300° |
| 2026-04-20 15:56 | 41.53335 | 20.85545 | 28709 ft | 411 kts | 300° |
| 2026-04-20 15:57 | 41.54735 | 20.82227 | 28423 ft | 410 kts | 300° |
| 2026-04-20 15:57 | 41.56126 | 20.78926 | 28165 ft | 409 kts | 300° |
| 2026-04-20 15:57 | 41.57503 | 20.75656 | 27899 ft | 409 kts | 300° |
| 2026-04-20 15:57 | 41.58895 | 20.72347 | 27646 ft | 407 kts | 300° |
| 2026-04-20 15:58 | 41.60279 | 20.69054 | 27331 ft | 406 kts | 300° |
| 2026-04-20 15:58 | 41.61653 | 20.65780 | 26877 ft | 402 kts | 300° |
| 2026-04-20 15:58 | 41.63013 | 20.62534 | 26405 ft | 399 kts | 300° |
| 2026-04-20 15:58 | 41.64364 | 20.59311 | 25924 ft | 396 kts | 300° |
| 2026-04-20 15:59 | 41.65704 | 20.56107 | 25460 ft | 393 kts | 300° |
| 2026-04-20 15:59 | 41.67032 | 20.52933 | 24975 ft | 390 kts | 300° |
| 2026-04-20 15:59 | 41.68411 | 20.49846 | 24613 ft | 383 kts | 302° |
| 2026-04-20 15:59 | 41.69831 | 20.46851 | 24236 ft | 381 kts | 302° |
| 2026-04-20 16:00 | 41.71271 | 20.43870 | 23880 ft | 381 kts | 303° |
| 2026-04-20 16:00 | 41.72710 | 20.40893 | 23487 ft | 382 kts | 302° |
| 2026-04-20 16:00 | 41.74148 | 20.37903 | 23063 ft | 381 kts | 302° |
| 2026-04-20 16:00 | 41.75574 | 20.34921 | 22659 ft | 379 kts | 302° |
| 2026-04-20 16:01 | 41.76984 | 20.31958 | 22291 ft | 377 kts | 302° |
| 2026-04-20 16:01 | 41.78382 | 20.29009 | 21907 ft | 374 kts | 302° |
| 2026-04-20 16:01 | 41.79773 | 20.26066 | 21560 ft | 371 kts | 302° |
| 2026-04-20 16:01 | 41.81140 | 20.23171 | 21198 ft | 363 kts | 302° |
| 2026-04-20 16:02 | 41.82459 | 20.20375 | 20827 ft | 347 kts | 302° |
| 2026-04-20 16:02 | 41.83725 | 20.17687 | 20505 ft | 337 kts | 302° |
| 2026-04-20 16:02 | 41.84974 | 20.15033 | 20203 ft | 339 kts | 302° |
| 2026-04-20 16:02 | 41.86237 | 20.12346 | 19866 ft | 342 kts | 302° |
| 2026-04-20 16:03 | 41.87509 | 20.09636 | 19546 ft | 342 kts | 302° |
| 2026-04-20 16:03 | 41.88769 | 20.06952 | 19175 ft | 338 kts | 302° |
| 2026-04-20 16:03 | 41.90010 | 20.04305 | 18877 ft | 333 kts | 301° |
| 2026-04-20 16:03 | 41.91231 | 20.01697 | 18548 ft | 326 kts | 302° |
| 2026-04-20 16:04 | 41.92414 | 19.99167 | 18208 ft | 313 kts | 302° |
| 2026-04-20 16:04 | 41.93549 | 19.96744 | 17848 ft | 299 kts | 302° |
| 2026-04-20 16:04 | 41.94627 | 19.94438 | 17571 ft | 285 kts | 302° |
| 2026-04-20 16:04 | 41.95667 | 19.92211 | 17334 ft | 280 kts | 302° |
| 2026-04-20 16:05 | 41.96702 | 19.89991 | 17044 ft | 281 kts | 301° |
| 2026-04-20 16:05 | 41.97738 | 19.87769 | 16754 ft | 280 kts | 301° |
| 2026-04-20 16:05 | 41.98773 | 19.85546 | 16487 ft | 281 kts | 301° |
| 2026-04-20 16:05 | 41.99813 | 19.83315 | 16197 ft | 280 kts | 301° |
| 2026-04-20 16:06 | 42.00837 | 19.81113 | 15923 ft | 276 kts | 301° |
| 2026-04-20 16:06 | 42.01840 | 19.78952 | 15651 ft | 268 kts | 301° |
| 2026-04-20 16:06 | 42.02812 | 19.76861 | 15392 ft | 261 kts | 302° |
| 2026-04-20 16:06 | 42.03762 | 19.74815 | 15125 ft | 254 kts | 301° |
| 2026-04-20 16:07 | 42.04695 | 19.72804 | 14898 ft | 252 kts | 301° |
| 2026-04-20 16:07 | 42.05618 | 19.70813 | 14629 ft | 250 kts | 301° |
| 2026-04-20 16:07 | 42.06531 | 19.68841 | 14424 ft | 248 kts | 301° |
| 2026-04-20 16:07 | 42.07440 | 19.66879 | 14160 ft | 246 kts | 301° |
| 2026-04-20 16:08 | 42.08341 | 19.64931 | 13925 ft | 244 kts | 301° |
| 2026-04-20 16:08 | 42.09232 | 19.63003 | 13672 ft | 242 kts | 301° |
| 2026-04-20 16:08 | 42.10104 | 19.61117 | 13406 ft | 240 kts | 301° |
| 2026-04-20 16:08 | 42.10981 | 19.59217 | 13162 ft | 237 kts | 301° |
| 2026-04-20 16:09 | 42.11847 | 19.57340 | 12929 ft | 235 kts | 301° |
| 2026-04-20 16:09 | 42.12704 | 19.55483 | 12690 ft | 232 kts | 301° |
| 2026-04-20 16:09 | 42.13550 | 19.53647 | 12464 ft | 230 kts | 301° |
| 2026-04-20 16:09 | 42.14382 | 19.51841 | 12273 ft | 224 kts | 301° |
| 2026-04-20 16:10 | 42.15199 | 19.50067 | 12033 ft | 222 kts | 301° |
| 2026-04-20 16:10 | 42.16010 | 19.48303 | 11811 ft | 221 kts | 301° |
| 2026-04-20 16:10 | 42.16814 | 19.46554 | 11588 ft | 218 kts | 301° |
| 2026-04-20 16:10 | 42.17607 | 19.44828 | 11369 ft | 215 kts | 301° |
| 2026-04-20 16:11 | 42.18387 | 19.43130 | 11159 ft | 211 kts | 301° |
| 2026-04-20 16:11 | 42.19156 | 19.41456 | 10953 ft | 208 kts | 301° |
| 2026-04-20 16:11 | 42.19917 | 19.39797 | 10756 ft | 208 kts | 301° |
| 2026-04-20 16:11 | 42.20680 | 19.38133 | 10560 ft | 210 kts | 301° |
| 2026-04-20 16:12 | 42.21454 | 19.36444 | 10355 ft | 213 kts | 301° |
| 2026-04-20 16:12 | 42.22239 | 19.34733 | 10156 ft | 215 kts | 302° |
| 2026-04-20 16:12 | 42.23293 | 19.33319 | 9934 ft | 217 kts | 326° |
| 2026-04-20 16:12 | 42.24668 | 19.32468 | 9739 ft | 218 kts | 336° |
| 2026-04-20 16:13 | 42.26099 | 19.31766 | 9525 ft | 219 kts | 337° |
| 2026-04-20 16:13 | 42.27521 | 19.31078 | 9336 ft | 214 kts | 337° |
| 2026-04-20 16:13 | 42.28899 | 19.30400 | 9117 ft | 208 kts | 336° |
| 2026-04-20 16:13 | 42.30238 | 19.29732 | 8922 ft | 203 kts | 336° |
| 2026-04-20 16:14 | 42.31560 | 19.29067 | 8759 ft | 202 kts | 336° |
| 2026-04-20 16:14 | 42.32875 | 19.28403 | 8576 ft | 202 kts | 336° |
| 2026-04-20 16:14 | 42.34192 | 19.27737 | 8409 ft | 202 kts | 336° |
| 2026-04-20 16:14 | 42.35493 | 19.27040 | 8223 ft | 200 kts | 328° |
| 2026-04-20 16:15 | 42.36418 | 19.25704 | 8045 ft | 196 kts | 292° |
| 2026-04-20 16:15 | 42.36602 | 19.23891 | 7941 ft | 200 kts | 262° |
| 2026-04-20 16:15 | 42.36035 | 19.22190 | 7827 ft | 201 kts | 233° |
| 2026-04-20 16:15 | 42.35414 | 19.21271 | 7762 ft | 199 kts | 228° |
| 2026-04-20 16:16 | 42.34093 | 19.19548 | 7577 ft | 194 kts | 226° |
| 2026-04-20 16:16 | 42.33448 | 19.18723 | 7492 ft | 193 kts | 226° |
| 2026-04-20 16:16 | 42.32480 | 19.17483 | 7391 ft | 191 kts | 226° |
| 2026-04-20 16:16 | 42.31521 | 19.16248 | 7277 ft | 190 kts | 226° |
| 2026-04-20 16:17 | 42.30567 | 19.15018 | 7166 ft | 190 kts | 226° |
| 2026-04-20 16:17 | 42.29616 | 19.13789 | 7063 ft | 189 kts | 226° |
| 2026-04-20 16:17 | 42.28667 | 19.12560 | 6962 ft | 189 kts | 226° |
| 2026-04-20 16:17 | 42.27720 | 19.11334 | 6849 ft | 189 kts | 226° |
| 2026-04-20 16:18 | 42.26770 | 19.10102 | 6741 ft | 189 kts | 226° |
| 2026-04-20 16:18 | 42.25828 | 19.08880 | 6599 ft | 187 kts | 226° |
| 2026-04-20 16:18 | 42.24896 | 19.07671 | 6533 ft | 186 kts | 226° |
| 2026-04-20 16:18 | 42.23962 | 19.06461 | 6434 ft | 185 kts | 226° |
| 2026-04-20 16:19 | 42.23034 | 19.05259 | 6319 ft | 185 kts | 226° |
| 2026-04-20 16:19 | 42.22101 | 19.04051 | 6218 ft | 187 kts | 226° |
| 2026-04-20 16:19 | 42.21160 | 19.02833 | 6082 ft | 188 kts | 226° |
| 2026-04-20 16:19 | 42.20220 | 19.01617 | 5942 ft | 189 kts | 226° |
| 2026-04-20 16:20 | 42.19266 | 19.00385 | 5792 ft | 189 kts | 226° |
| 2026-04-20 16:20 | 42.18321 | 18.99167 | 5627 ft | 187 kts | 225° |
| 2026-04-20 16:20 | 42.17385 | 18.97966 | 5410 ft | 183 kts | 226° |
| 2026-04-20 16:20 | 42.16484 | 18.96808 | 5258 ft | 176 kts | 226° |
| 2026-04-20 16:21 | 42.15618 | 18.95695 | 5095 ft | 170 kts | 226° |
| 2026-04-20 16:21 | 42.15038 | 18.94384 | 4927 ft | 160 kts | 262° |
| 2026-04-20 16:21 | 42.15153 | 18.92933 | 4795 ft | 156 kts | 282° |
| 2026-04-20 16:21 | 42.15362 | 18.91503 | 4616 ft | 153 kts | 280° |
| 2026-04-20 16:22 | 42.15560 | 18.90119 | 4430 ft | 148 kts | 281° |
| 2026-04-20 16:22 | 42.15756 | 18.88772 | 4263 ft | 145 kts | 280° |
| 2026-04-20 16:22 | 42.15949 | 18.87449 | 4153 ft | 141 kts | 280° |
| 2026-04-20 16:22 | 42.16304 | 18.86202 | 3966 ft | 148 kts | 313° |
| 2026-04-20 16:23 | 42.17246 | 18.85645 | 3900 ft | 152 kts | 339° |
| 2026-04-20 16:23 | 42.18248 | 18.85157 | 3757 ft | 153 kts | 337° |
| 2026-04-20 16:23 | 42.19239 | 18.84652 | 3632 ft | 152 kts | 336° |
| 2026-04-20 16:23 | 42.20224 | 18.84147 | 3525 ft | 151 kts | 337° |
| 2026-04-20 16:24 | 42.21210 | 18.83642 | 3402 ft | 151 kts | 337° |
| 2026-04-20 16:24 | 42.22193 | 18.83137 | 3291 ft | 151 kts | 337° |
| 2026-04-20 16:24 | 42.23178 | 18.82630 | 3168 ft | 151 kts | 338° |
| 2026-04-20 16:24 | 42.24161 | 18.82129 | 3056 ft | 151 kts | 339° |
| 2026-04-20 16:25 | 42.25158 | 18.81673 | 2919 ft | 151 kts | 341° |
| 2026-04-20 16:25 | 42.26162 | 18.81248 | 2807 ft | 152 kts | 341° |
| 2026-04-20 16:25 | 42.27163 | 18.80809 | 2726 ft | 151 kts | 341° |
| 2026-04-20 16:25 | 42.28169 | 18.80387 | 2673 ft | 153 kts | 342° |
| 2026-04-20 16:26 | 42.29201 | 18.79969 | 2463 ft | 155 kts | 343° |
| 2026-04-20 16:26 | 42.30224 | 18.79560 | 2233 ft | 152 kts | 342° |
| 2026-04-20 16:26 | 42.31218 | 18.79090 | 2005 ft | 150 kts | 339° |
| 2026-04-20 16:26 | 42.32194 | 18.78611 | 1813 ft | 151 kts | 340° |
| 2026-04-20 16:27 | 42.33177 | 18.78130 | 1558 ft | 148 kts | 339° |
| 2026-04-20 16:27 | 42.34122 | 18.77627 | 1318 ft | 145 kts | 339° |
| 2026-04-20 16:27 | 42.35062 | 18.77127 | 1091 ft | 145 kts | 338° |
| 2026-04-20 16:27 | 42.35994 | 18.76602 | 908 ft | 147 kts | 336° |
| 2026-04-20 16:28 | 42.36929 | 18.76005 | 694 ft | 150 kts | 331° |
| 2026-04-20 16:28 | 42.37821 | 18.75266 | 521 ft | 154 kts | 325° |
| 2026-04-20 16:28 | 42.38696 | 18.74374 | 315 ft | 158 kts | 320° |
| 2026-04-20 16:28 | 42.39542 | 18.73408 | 71 ft | 157 kts | 318° |
| 2026-04-20 16:29 | 42.40308 | 18.72511 | 22 ft | 130 kts | 319° |
| 2026-04-20 16:29 | 42.40827 | 18.71903 | 18 ft | 65 kts | 319° |
| 2026-04-20 16:29 | 42.41061 | 18.71628 | 17 ft | 16 kts | 319° |
| 2026-04-20 16:29 | 42.41148 | 18.71527 | 17 ft | 17 kts | 319° |
| 2026-04-20 16:30 | 42.41230 | 18.71429 | 15 ft | 13 kts | 319° |
| 2026-04-20 16:30 | 42.41301 | 18.71362 | 15 ft | 11 kts | 355° |
| 2026-04-20 16:30 | 42.41354 | 18.71412 | 16 ft | 8 kts | 65° |
| 2026-04-20 16:30 | 42.41337 | 18.71482 | 17 ft | 8 kts | 138° |
| 2026-04-20 16:31 | 42.41296 | 18.71530 | 16 ft | 6 kts | 139° |
| 2026-04-20 16:31 | 42.41265 | 18.71566 | 16 ft | 6 kts | 139° |
| 2026-04-20 16:31 | 42.41235 | 18.71603 | 17 ft | 6 kts | 139° |
| 2026-04-20 16:31 | 42.41200 | 18.71643 | 17 ft | 7 kts | 139° |
| 2026-04-20 16:32 | 42.41162 | 18.71689 | 17 ft | 7 kts | 139° |
| 2026-04-20 16:32 | 42.41125 | 18.71733 | 17 ft | 7 kts | 139° |
| 2026-04-20 16:32 | 42.41089 | 18.71775 | 18 ft | 7 kts | 139° |
| 2026-04-20 16:32 | 42.41053 | 18.71816 | 18 ft | 7 kts | 140° |
| 2026-04-20 16:33 | 42.41033 | 18.71852 | 18 ft | 3 kts | 91° |
| 2026-04-20 16:33 | 42.41041 | 18.71875 | 18 ft | 1 kts | 62° |
| 2026-04-20 16:33 | 42.41046 | 18.71885 | 19 ft | 1 kts | 55° |
| 2026-04-20 16:33 | 42.41047 | 18.71887 | 19 ft | 0 kts | 54° |
| 2026-04-20 16:34 | 42.41046 | 18.71888 | 19 ft | 0 kts | 49° |